Deering Airport
PADE : now visible

Airfield :











YOU CAN JOIN US ON...

 
LOGIN :

Register | Disclaimer

   EN    FR    IT 

 









Legend :    VFR   Marginal VFR   IFR   Intensive IFR   Very Intensive IFR
Visi :
Ceiling :
>= 8 km
>= 3000ft
5 to 8 km
1000 to 3000 ft
1500m to 5 km
500 to 1000 ft
800 to 1500m
200 to 500 ft
< 800m
< 200 ft
Symbols :   Thunderstorms  Fog  Heavy snow  Heavy precipitations  Wind > 20 kt






- Airport Elevation : 21 ft
- IATA code : DEE


PADE - Deering

CURRENT METAR :
  • 230153Z AUTO 07012KT 10SM FEW012 02/M01 A3039 RMK AO2 SLP290 T00171006 TSNO

EXPIRED METARs :
  • 230053Z AUTO 07015KT 10SM CLR 02/01 A3040 RMK AO2 SLP295 T00220006 TSNO
  • 222353Z AUTO 06015KT 10SM FEW009 03/01 A3042 RMK AO2 SLP300 T00280011 10033 20022 58021 TSNO
  • 222314Z AUTO 05012KT 10SM FEW007 03/02 A3044 RMK AO2 T00280017 TSNO

TAF N/A
PAZA FIR / North America



MET'MAP, your aeronautical weather chart ! - Copyright ORBIFLY December 2007 - Disclaimer

ORBIFLY MET'MAP TEAM :

Programming & Development : Alexandra Zaïnal
Concept & original design : Baudouin d'Aumeries
Assistance for programming : Marc-Olivier Méhu
Technical & hardware support : Manuel Goepfert

Contact : metmap@orbifly.com




SOURCES & CREDITS :

   NOAA       Earth
Advisory